sensor_id;sensor_type;location;lat;lon;timestamp;P1;durP1;ratioP1;P2;durP2;ratioP2
64842;SDS011;51310;52.198;5.422;2022-12-08T00:01:19;6.28;;;2.33;;
64842;SDS011;51310;52.198;5.422;2022-12-08T00:03:49;8.17;;;2.30;;
64842;SDS011;51310;52.198;5.422;2022-12-08T00:06:29;4.97;;;2.20;;
64842;SDS011;51310;52.198;5.422;2022-12-08T00:09:33;7.05;;;2.72;;
64842;SDS011;51310;52.198;5.422;2022-12-08T00:12:07;7.00;;;2.60;;
64842;SDS011;51310;52.198;5.422;2022-12-08T00:14:42;5.75;;;2.10;;
64842;SDS011;51310;52.198;5.422;2022-12-08T00:17:11;5.90;;;2.70;;
64842;SDS011;51310;52.198;5.422;2022-12-08T00:19:40;4.95;;;2.40;;
64842;SDS011;51310;52.198;5.422;2022-12-08T00:22:08;6.03;;;2.50;;
64842;SDS011;51310;52.198;5.422;2022-12-08T00:24:36;7.10;;;2.55;;
64842;SDS011;51310;52.198;5.422;2022-12-08T00:27:05;7.60;;;3.00;;
64842;SDS011;51310;52.198;5.422;2022-12-08T00:29:33;5.57;;;2.55;;
64842;SDS011;51310;52.198;5.422;2022-12-08T00:31:58;8.35;;;3.25;;
64842;SDS011;51310;52.198;5.422;2022-12-08T00:34:24;7.97;;;2.90;;
64842;SDS011;51310;52.198;5.422;2022-12-08T00:36:50;6.85;;;3.20;;
64842;SDS011;51310;52.198;5.422;2022-12-08T00:39:16;6.90;;;3.43;;
64842;SDS011;51310;52.198;5.422;2022-12-08T00:41:43;6.28;;;3.33;;
64842;SDS011;51310;52.198;5.422;2022-12-08T00:44:27;9.52;;;4.40;;
64842;SDS011;51310;52.198;5.422;2022-12-08T00:46:53;9.00;;;4.03;;
64842;SDS011;51310;52.198;5.422;2022-12-08T00:49:19;7.18;;;4.13;;
64842;SDS011;51310;52.198;5.422;2022-12-08T00:51:46;13.30;;;4.90;;
64842;SDS011;51310;52.198;5.422;2022-12-08T00:54:12;10.63;;;5.28;;
64842;SDS011;51310;52.198;5.422;2022-12-08T00:56:38;8.23;;;5.20;;
64842;SDS011;51310;52.198;5.422;2022-12-08T00:59:05;8.73;;;5.32;;
64842;SDS011;51310;52.198;5.422;2022-12-08T01:01:32;7.50;;;4.97;;
64842;SDS011;51310;52.198;5.422;2022-12-08T01:04:06;7.47;;;5.07;;
64842;SDS011;51310;52.198;5.422;2022-12-08T01:06:39;10.48;;;6.20;;
64842;SDS011;51310;52.198;5.422;2022-12-08T01:09:06;11.68;;;6.72;;
64842;SDS011;51310;52.198;5.422;2022-12-08T01:11:34;10.32;;;6.68;;
64842;SDS011;51310;52.198;5.422;2022-12-08T01:14:01;10.13;;;6.85;;
64842;SDS011;51310;52.198;5.422;2022-12-08T01:16:29;11.02;;;6.70;;
64842;SDS011;51310;52.198;5.422;2022-12-08T01:18:59;10.57;;;6.60;;
64842;SDS011;51310;52.198;5.422;2022-12-08T01:21:26;13.60;;;7.50;;
64842;SDS011;51310;52.198;5.422;2022-12-08T01:23:53;15.88;;;8.13;;
64842;SDS011;51310;52.198;5.422;2022-12-08T01:26:20;11.70;;;7.72;;
64842;SDS011;51310;52.198;5.422;2022-12-08T01:28:46;10.73;;;7.47;;
64842;SDS011;51310;52.198;5.422;2022-12-08T01:31:15;13.30;;;7.78;;
64842;SDS011;51310;52.198;5.422;2022-12-08T01:33:46;12.53;;;7.97;;
64842;SDS011;51310;52.198;5.422;2022-12-08T01:36:26;11.63;;;7.93;;
64842;SDS011;51310;52.198;5.422;2022-12-08T01:38:58;11.90;;;6.68;;
64842;SDS011;51310;52.198;5.422;2022-12-08T01:41:30;13.02;;;7.20;;
64842;SDS011;51310;52.198;5.422;2022-12-08T01:46:49;8.93;;;5.28;;
64842;SDS011;51310;52.198;5.422;2022-12-08T01:49:22;7.82;;;4.88;;
64842;SDS011;51310;52.198;5.422;2022-12-08T01:52:10;7.35;;;4.40;;
64842;SDS011;51310;52.198;5.422;2022-12-08T01:54:48;6.13;;;3.72;;
64842;SDS011;51310;52.198;5.422;2022-12-08T01:57:28;11.63;;;3.63;;
64842;SDS011;51310;52.198;5.422;2022-12-08T02:00:07;6.65;;;3.30;;
64842;SDS011;51310;52.198;5.422;2022-12-08T02:02:46;7.27;;;3.23;;
64842;SDS011;51310;52.198;5.422;2022-12-08T02:05:25;6.05;;;2.53;;
64842;SDS011;51310;52.198;5.422;2022-12-08T02:07:56;4.28;;;2.50;;
64842;SDS011;51310;52.198;5.422;2022-12-08T02:10:27;4.88;;;2.58;;
64842;SDS011;51310;52.198;5.422;2022-12-08T02:12:58;4.40;;;2.30;;
64842;SDS011;51310;52.198;5.422;2022-12-08T02:15:31;7.20;;;2.38;;
64842;SDS011;51310;52.198;5.422;2022-12-08T02:18:35;6.05;;;2.30;;
64842;SDS011;51310;52.198;5.422;2022-12-08T02:24:12;3.55;;;2.25;;
64842;SDS011;51310;52.198;5.422;2022-12-08T02:27:17;5.00;;;2.33;;
64842;SDS011;51310;52.198;5.422;2022-12-08T02:33:00;4.88;;;3.17;;
64842;SDS011;51310;52.198;5.422;2022-12-08T02:44:34;5.97;;;3.80;;
64842;SDS011;51310;52.198;5.422;2022-12-08T02:47:17;8.48;;;4.90;;
64842;SDS011;51310;52.198;5.422;2022-12-08T02:49:47;8.07;;;4.93;;
64842;SDS011;51310;52.198;5.422;2022-12-08T02:54:40;9.43;;;5.90;;
64842;SDS011;51310;52.198;5.422;2022-12-08T03:00:23;9.63;;;5.38;;
64842;SDS011;51310;52.198;5.422;2022-12-08T03:03:08;8.90;;;6.00;;
64842;SDS011;51310;52.198;5.422;2022-12-08T03:06:26;8.70;;;6.05;;
64842;SDS011;51310;52.198;5.422;2022-12-08T03:11:52;10.60;;;5.85;;
64842;SDS011;51310;52.198;5.422;2022-12-08T03:14:28;8.77;;;5.70;;
64842;SDS011;51310;52.198;5.422;2022-12-08T03:16:57;8.48;;;5.15;;
64842;SDS011;51310;52.198;5.422;2022-12-08T03:19:25;10.43;;;5.85;;
64842;SDS011;51310;52.198;5.422;2022-12-08T03:22:02;7.93;;;5.07;;
64842;SDS011;51310;52.198;5.422;2022-12-08T03:24:38;7.97;;;5.67;;
64842;SDS011;51310;52.198;5.422;2022-12-08T03:27:14;10.73;;;5.15;;
64842;SDS011;51310;52.198;5.422;2022-12-08T03:29:47;7.50;;;4.20;;
64842;SDS011;51310;52.198;5.422;2022-12-08T03:35:13;8.40;;;4.43;;
64842;SDS011;51310;52.198;5.422;2022-12-08T03:37:46;6.88;;;4.60;;
64842;SDS011;51310;52.198;5.422;2022-12-08T03:40:14;6.20;;;4.05;;
64842;SDS011;51310;52.198;5.422;2022-12-08T03:42:44;8.85;;;4.10;;
64842;SDS011;51310;52.198;5.422;2022-12-08T03:45:10;7.18;;;4.35;;
64842;SDS011;51310;52.198;5.422;2022-12-08T03:47:36;7.95;;;4.47;;
64842;SDS011;51310;52.198;5.422;2022-12-08T03:50:03;7.15;;;5.10;;
64842;SDS011;51310;52.198;5.422;2022-12-08T03:52:30;8.43;;;4.72;;
64842;SDS011;51310;52.198;5.422;2022-12-08T03:54:55;10.40;;;4.80;;
64842;SDS011;51310;52.198;5.422;2022-12-08T03:57:21;7.82;;;5.22;;
64842;SDS011;51310;52.198;5.422;2022-12-08T03:59:47;6.88;;;4.70;;
64842;SDS011;51310;52.198;5.422;2022-12-08T04:02:13;9.63;;;4.75;;
64842;SDS011;51310;52.198;5.422;2022-12-08T04:04:39;6.15;;;3.88;;
64842;SDS011;51310;52.198;5.422;2022-12-08T04:07:05;8.93;;;4.00;;
64842;SDS011;51310;52.198;5.422;2022-12-08T04:09:30;9.82;;;4.45;;
64842;SDS011;51310;52.198;5.422;2022-12-08T04:11:56;10.05;;;4.50;;
64842;SDS011;51310;52.198;5.422;2022-12-08T04:14:22;8.20;;;4.10;;
64842;SDS011;51310;52.198;5.422;2022-12-08T04:16:48;5.47;;;2.93;;
64842;SDS011;51310;52.198;5.422;2022-12-08T04:19:14;6.60;;;2.88;;
64842;SDS011;51310;52.198;5.422;2022-12-08T04:21:40;7.55;;;2.80;;
64842;SDS011;51310;52.198;5.422;2022-12-08T04:24:06;6.30;;;3.22;;
64842;SDS011;51310;52.198;5.422;2022-12-08T04:26:31;6.35;;;2.40;;
64842;SDS011;51310;52.198;5.422;2022-12-08T04:28:57;5.10;;;2.67;;
64842;SDS011;51310;52.198;5.422;2022-12-08T04:31:23;7.13;;;2.60;;
64842;SDS011;51310;52.198;5.422;2022-12-08T04:33:49;7.50;;;2.80;;
64842;SDS011;51310;52.198;5.422;2022-12-08T04:36:15;7.32;;;2.50;;
64842;SDS011;51310;52.198;5.422;2022-12-08T04:38:41;5.90;;;2.10;;
64842;SDS011;51310;52.198;5.422;2022-12-08T04:41:07;8.90;;;2.35;;
64842;SDS011;51310;52.198;5.422;2022-12-08T04:43:33;5.18;;;2.10;;
64842;SDS011;51310;52.198;5.422;2022-12-08T04:46:00;6.00;;;2.10;;
64842;SDS011;51310;52.198;5.422;2022-12-08T04:48:30;3.83;;;1.73;;
64842;SDS011;51310;52.198;5.422;2022-12-08T04:50:56;3.70;;;1.63;;
64842;SDS011;51310;52.198;5.422;2022-12-08T04:53:22;3.33;;;1.67;;
64842;SDS011;51310;52.198;5.422;2022-12-08T04:55:47;6.30;;;1.50;;
64842;SDS011;51310;52.198;5.422;2022-12-08T04:58:15;6.55;;;1.80;;
64842;SDS011;51310;52.198;5.422;2022-12-08T05:00:43;6.40;;;1.52;;
64842;SDS011;51310;52.198;5.422;2022-12-08T05:03:11;3.00;;;1.30;;
64842;SDS011;51310;52.198;5.422;2022-12-08T05:05:38;7.30;;;1.40;;
64842;SDS011;51310;52.198;5.422;2022-12-08T05:08:06;8.05;;;1.63;;
64842;SDS011;51310;52.198;5.422;2022-12-08T05:10:34;2.00;;;1.17;;
64842;SDS011;51310;52.198;5.422;2022-12-08T05:13:01;5.65;;;1.35;;
64842;SDS011;51310;52.198;5.422;2022-12-08T05:15:27;2.20;;;1.10;;
64842;SDS011;51310;52.198;5.422;2022-12-08T05:17:53;3.90;;;0.95;;
64842;SDS011;51310;52.198;5.422;2022-12-08T05:20:19;4.03;;;1.53;;
64842;SDS011;51310;52.198;5.422;2022-12-08T05:22:45;5.07;;;1.40;;
64842;SDS011;51310;52.198;5.422;2022-12-08T05:25:11;2.83;;;1.05;;
64842;SDS011;51310;52.198;5.422;2022-12-08T05:27:37;4.00;;;1.50;;
64842;SDS011;51310;52.198;5.422;2022-12-08T05:30:03;1.83;;;0.97;;
64842;SDS011;51310;52.198;5.422;2022-12-08T05:32:29;2.67;;;1.30;;
64842;SDS011;51310;52.198;5.422;2022-12-08T05:34:59;2.90;;;1.10;;
64842;SDS011;51310;52.198;5.422;2022-12-08T05:37:25;2.13;;;1.13;;
64842;SDS011;51310;52.198;5.422;2022-12-08T05:39:50;2.90;;;1.33;;
64842;SDS011;51310;52.198;5.422;2022-12-08T05:42:16;3.95;;;1.52;;
64842;SDS011;51310;52.198;5.422;2022-12-08T05:44:42;3.80;;;1.10;;
64842;SDS011;51310;52.198;5.422;2022-12-08T05:47:08;2.72;;;1.50;;
64842;SDS011;51310;52.198;5.422;2022-12-08T05:49:34;2.53;;;1.33;;
64842;SDS011;51310;52.198;5.422;2022-12-08T05:52:00;3.22;;;1.05;;
64842;SDS011;51310;52.198;5.422;2022-12-08T05:54:26;3.70;;;1.30;;
64842;SDS011;51310;52.198;5.422;2022-12-08T05:56:51;2.03;;;1.37;;
64842;SDS011;51310;52.198;5.422;2022-12-08T05:59:17;2.45;;;1.05;;
64842;SDS011;51310;52.198;5.422;2022-12-08T06:01:43;3.33;;;0.98;;
64842;SDS011;51310;52.198;5.422;2022-12-08T06:04:09;4.63;;;1.05;;
64842;SDS011;51310;52.198;5.422;2022-12-08T06:06:35;2.72;;;1.30;;
64842;SDS011;51310;52.198;5.422;2022-12-08T06:09:02;4.07;;;1.60;;
64842;SDS011;51310;52.198;5.422;2022-12-08T06:11:30;3.88;;;1.20;;
64842;SDS011;51310;52.198;5.422;2022-12-08T06:13:57;2.35;;;1.20;;
64842;SDS011;51310;52.198;5.422;2022-12-08T06:16:25;2.63;;;1.60;;
64842;SDS011;51310;52.198;5.422;2022-12-08T06:18:52;1.92;;;1.02;;
64842;SDS011;51310;52.198;5.422;2022-12-08T06:21:19;2.55;;;0.98;;
64842;SDS011;51310;52.198;5.422;2022-12-08T06:23:49;2.58;;;1.55;;
64842;SDS011;51310;52.198;5.422;2022-12-08T06:26:17;2.72;;;1.10;;
64842;SDS011;51310;52.198;5.422;2022-12-08T06:28:43;3.85;;;1.45;;
64842;SDS011;51310;52.198;5.422;2022-12-08T06:31:11;2.38;;;1.40;;
64842;SDS011;51310;52.198;5.422;2022-12-08T06:33:45;2.65;;;1.30;;
64842;SDS011;51310;52.198;5.422;2022-12-08T06:36:12;1.95;;;1.08;;
64842;SDS011;51310;52.198;5.422;2022-12-08T06:38:41;2.70;;;1.23;;
64842;SDS011;51310;52.198;5.422;2022-12-08T06:41:08;4.22;;;1.45;;
64842;SDS011;51310;52.198;5.422;2022-12-08T06:43:34;4.20;;;1.75;;
64842;SDS011;51310;52.198;5.422;2022-12-08T06:46:00;2.28;;;1.10;;
64842;SDS011;51310;52.198;5.422;2022-12-08T06:48:31;3.20;;;1.10;;
64842;SDS011;51310;52.198;5.422;2022-12-08T06:50:59;3.13;;;1.20;;
64842;SDS011;51310;52.198;5.422;2022-12-08T06:53:40;4.40;;;1.30;;
64842;SDS011;51310;52.198;5.422;2022-12-08T06:56:07;3.60;;;1.07;;
64842;SDS011;51310;52.198;5.422;2022-12-08T06:58:34;2.47;;;1.10;;
64842;SDS011;51310;52.198;5.422;2022-12-08T07:01:07;2.27;;;1.17;;
64842;SDS011;51310;52.198;5.422;2022-12-08T07:03:36;4.90;;;1.45;;
64842;SDS011;51310;52.198;5.422;2022-12-08T07:06:03;3.50;;;1.30;;
64842;SDS011;51310;52.198;5.422;2022-12-08T07:08:31;2.60;;;0.98;;
64842;SDS011;51310;52.198;5.422;2022-12-08T07:10:58;3.33;;;1.10;;
64842;SDS011;51310;52.198;5.422;2022-12-08T07:13:32;3.47;;;1.10;;
64842;SDS011;51310;52.198;5.422;2022-12-08T07:15:58;3.08;;;1.02;;
64842;SDS011;51310;52.198;5.422;2022-12-08T07:18:24;2.87;;;1.00;;
64842;SDS011;51310;52.198;5.422;2022-12-08T07:20:50;2.30;;;1.00;;
64842;SDS011;51310;52.198;5.422;2022-12-08T07:23:15;3.92;;;1.20;;
64842;SDS011;51310;52.198;5.422;2022-12-08T07:25:41;2.45;;;1.20;;
64842;SDS011;51310;52.198;5.422;2022-12-08T07:28:10;2.17;;;1.10;;
64842;SDS011;51310;52.198;5.422;2022-12-08T07:30:37;2.72;;;1.13;;
64842;SDS011;51310;52.198;5.422;2022-12-08T07:33:03;2.83;;;1.20;;
64842;SDS011;51310;52.198;5.422;2022-12-08T07:35:32;3.60;;;1.25;;
64842;SDS011;51310;52.198;5.422;2022-12-08T07:37:58;1.97;;;1.20;;
64842;SDS011;51310;52.198;5.422;2022-12-08T07:40:23;2.67;;;1.55;;
64842;SDS011;51310;52.198;5.422;2022-12-08T07:42:49;3.10;;;1.75;;
64842;SDS011;51310;52.198;5.422;2022-12-08T07:45:15;4.40;;;2.20;;
64842;SDS011;51310;52.198;5.422;2022-12-08T07:47:41;4.50;;;2.22;;
64842;SDS011;51310;52.198;5.422;2022-12-08T07:50:07;5.40;;;2.20;;
64842;SDS011;51310;52.198;5.422;2022-12-08T07:52:33;4.10;;;2.67;;
64842;SDS011;51310;52.198;5.422;2022-12-08T07:54:59;4.95;;;2.47;;
64842;SDS011;51310;52.198;5.422;2022-12-08T07:57:26;6.25;;;2.92;;
64842;SDS011;51310;52.198;5.422;2022-12-08T07:59:51;6.20;;;3.10;;
64842;SDS011;51310;52.198;5.422;2022-12-08T08:02:18;5.15;;;3.40;;
64842;SDS011;51310;52.198;5.422;2022-12-08T08:04:44;8.90;;;3.35;;
64842;SDS011;51310;52.198;5.422;2022-12-08T08:07:14;5.65;;;3.10;;
64842;SDS011;51310;52.198;5.422;2022-12-08T08:09:40;4.75;;;3.20;;
64842;SDS011;51310;52.198;5.422;2022-12-08T08:12:07;6.63;;;3.60;;
64842;SDS011;51310;52.198;5.422;2022-12-08T08:14:34;6.35;;;3.65;;
64842;SDS011;51310;52.198;5.422;2022-12-08T08:17:00;4.70;;;2.92;;
64842;SDS011;51310;52.198;5.422;2022-12-08T08:19:25;7.60;;;3.53;;
64842;SDS011;51310;52.198;5.422;2022-12-08T08:21:51;4.72;;;3.00;;
64842;SDS011;51310;52.198;5.422;2022-12-08T08:24:17;5.93;;;3.22;;
64842;SDS011;51310;52.198;5.422;2022-12-08T08:26:45;4.90;;;3.47;;
64842;SDS011;51310;52.198;5.422;2022-12-08T08:29:11;5.60;;;3.15;;
64842;SDS011;51310;52.198;5.422;2022-12-08T08:31:37;6.18;;;3.33;;
64842;SDS011;51310;52.198;5.422;2022-12-08T08:34:03;5.27;;;3.10;;
64842;SDS011;51310;52.198;5.422;2022-12-08T08:36:30;4.60;;;3.13;;
64842;SDS011;51310;52.198;5.422;2022-12-08T08:38:56;8.57;;;3.15;;
64842;SDS011;51310;52.198;5.422;2022-12-08T08:41:22;5.65;;;3.50;;
64842;SDS011;51310;52.198;5.422;2022-12-08T08:43:48;5.65;;;3.08;;
64842;SDS011;51310;52.198;5.422;2022-12-08T08:46:14;5.05;;;3.13;;
64842;SDS011;51310;52.198;5.422;2022-12-08T08:48:40;4.77;;;2.73;;
64842;SDS011;51310;52.198;5.422;2022-12-08T08:51:09;5.05;;;2.75;;
64842;SDS011;51310;52.198;5.422;2022-12-08T08:53:38;5.03;;;2.65;;
64842;SDS011;51310;52.198;5.422;2022-12-08T08:56:12;5.38;;;2.65;;
64842;SDS011;51310;52.198;5.422;2022-12-08T08:58:43;5.63;;;2.45;;
64842;SDS011;51310;52.198;5.422;2022-12-08T09:01:15;3.83;;;2.13;;
64842;SDS011;51310;52.198;5.422;2022-12-08T09:03:46;4.95;;;1.85;;
64842;SDS011;51310;52.198;5.422;2022-12-08T09:06:13;2.70;;;1.50;;
64842;SDS011;51310;52.198;5.422;2022-12-08T09:08:40;5.80;;;1.60;;
64842;SDS011;51310;52.198;5.422;2022-12-08T09:11:07;4.43;;;1.45;;
64842;SDS011;51310;52.198;5.422;2022-12-08T09:13:33;2.88;;;1.60;;
64842;SDS011;51310;52.198;5.422;2022-12-08T09:16:03;1.65;;;1.20;;
64842;SDS011;51310;52.198;5.422;2022-12-08T09:18:32;2.00;;;1.15;;
64842;SDS011;51310;52.198;5.422;2022-12-08T09:21:03;2.38;;;1.23;;
64842;SDS011;51310;52.198;5.422;2022-12-08T09:23:37;7.10;;;1.70;;
64842;SDS011;51310;52.198;5.422;2022-12-08T09:26:03;4.43;;;1.30;;
64842;SDS011;51310;52.198;5.422;2022-12-08T09:28:30;3.85;;;1.60;;
64842;SDS011;51310;52.198;5.422;2022-12-08T09:30:57;2.83;;;1.38;;
64842;SDS011;51310;52.198;5.422;2022-12-08T09:33:23;6.17;;;1.30;;
64842;SDS011;51310;52.198;5.422;2022-12-08T09:35:49;3.45;;;1.60;;
64842;SDS011;51310;52.198;5.422;2022-12-08T09:38:14;2.08;;;1.10;;
64842;SDS011;51310;52.198;5.422;2022-12-08T09:40:47;4.45;;;1.20;;
64842;SDS011;51310;52.198;5.422;2022-12-08T09:46:26;1.38;;;1.00;;
64842;SDS011;51310;52.198;5.422;2022-12-08T09:48:57;3.22;;;1.35;;
64842;SDS011;51310;52.198;5.422;2022-12-08T09:51:26;2.25;;;1.15;;
64842;SDS011;51310;52.198;5.422;2022-12-08T09:54:21;3.35;;;1.23;;
64842;SDS011;51310;52.198;5.422;2022-12-08T09:57:00;4.85;;;1.27;;
64842;SDS011;51310;52.198;5.422;2022-12-08T09:59:37;3.17;;;1.40;;
64842;SDS011;51310;52.198;5.422;2022-12-08T10:02:12;3.55;;;1.80;;
64842;SDS011;51310;52.198;5.422;2022-12-08T10:04:48;2.43;;;1.50;;
64842;SDS011;51310;52.198;5.422;2022-12-08T10:07:32;3.97;;;1.38;;
64842;SDS011;51310;52.198;5.422;2022-12-08T10:13:01;2.47;;;1.40;;
64842;SDS011;51310;52.198;5.422;2022-12-08T10:19:22;2.97;;;1.60;;
64842;SDS011;51310;52.198;5.422;2022-12-08T10:21:52;3.13;;;1.45;;
64842;SDS011;51310;52.198;5.422;2022-12-08T10:24:31;1.90;;;1.30;;
64842;SDS011;51310;52.198;5.422;2022-12-08T10:27:11;2.72;;;1.27;;
64842;SDS011;51310;52.198;5.422;2022-12-08T10:29:38;2.63;;;1.27;;
64842;SDS011;51310;52.198;5.422;2022-12-08T10:32:10;2.10;;;1.00;;
64842;SDS011;51310;52.198;5.422;2022-12-08T10:34:57;3.60;;;1.60;;
64842;SDS011;51310;52.198;5.422;2022-12-08T10:37:36;2.53;;;1.30;;
64842;SDS011;51310;52.198;5.422;2022-12-08T10:42:42;2.58;;;1.20;;
64842;SDS011;51310;52.198;5.422;2022-12-08T10:45:19;2.63;;;0.88;;
64842;SDS011;51310;52.198;5.422;2022-12-08T10:48:19;5.22;;;1.60;;
64842;SDS011;51310;52.198;5.422;2022-12-08T10:50:57;1.83;;;0.80;;
64842;SDS011;51310;52.198;5.422;2022-12-08T10:53:30;1.42;;;0.77;;
64842;SDS011;51310;52.198;5.422;2022-12-08T10:56:15;2.63;;;0.60;;
64842;SDS011;51310;52.198;5.422;2022-12-08T10:58:45;4.43;;;1.00;;
64842;SDS011;51310;52.198;5.422;2022-12-08T11:01:13;2.10;;;1.00;;
64842;SDS011;51310;52.198;5.422;2022-12-08T11:03:47;1.73;;;0.82;;
64842;SDS011;51310;52.198;5.422;2022-12-08T11:06:29;2.72;;;0.90;;
64842;SDS011;51310;52.198;5.422;2022-12-08T11:09:04;4.82;;;1.10;;
64842;SDS011;51310;52.198;5.422;2022-12-08T11:11:52;1.60;;;0.70;;
64842;SDS011;51310;52.198;5.422;2022-12-08T11:14:25;3.75;;;0.95;;
64842;SDS011;51310;52.198;5.422;2022-12-08T11:17:00;1.88;;;1.20;;
64842;SDS011;51310;52.198;5.422;2022-12-08T11:19:31;3.13;;;0.77;;
64842;SDS011;51310;52.198;5.422;2022-12-08T11:25:22;4.78;;;1.58;;
64842;SDS011;51310;52.198;5.422;2022-12-08T11:27:52;4.72;;;0.95;;
64842;SDS011;51310;52.198;5.422;2022-12-08T11:30:24;4.43;;;1.37;;
64842;SDS011;51310;52.198;5.422;2022-12-08T11:33:12;3.22;;;1.45;;
64842;SDS011;51310;52.198;5.422;2022-12-08T11:35:50;3.70;;;1.20;;
64842;SDS011;51310;52.198;5.422;2022-12-08T11:38:45;3.80;;;1.50;;
64842;SDS011;51310;52.198;5.422;2022-12-08T11:41:17;2.50;;;1.42;;
64842;SDS011;51310;52.198;5.422;2022-12-08T11:44:03;5.25;;;1.50;;
64842;SDS011;51310;52.198;5.422;2022-12-08T11:47:19;2.55;;;1.15;;
64842;SDS011;51310;52.198;5.422;2022-12-08T11:50:16;2.40;;;1.40;;
64842;SDS011;51310;52.198;5.422;2022-12-08T11:52:54;2.50;;;1.25;;
64842;SDS011;51310;52.198;5.422;2022-12-08T11:55:27;3.25;;;1.60;;
64842;SDS011;51310;52.198;5.422;2022-12-08T11:58:23;2.03;;;1.50;;
64842;SDS011;51310;52.198;5.422;2022-12-08T12:00:59;1.90;;;1.60;;
64842;SDS011;51310;52.198;5.422;2022-12-08T12:03:30;2.17;;;1.35;;
64842;SDS011;51310;52.198;5.422;2022-12-08T12:24:20;3.20;;;1.37;;
64842;SDS011;51310;52.198;5.422;2022-12-08T12:26:56;4.53;;;1.60;;
64842;SDS011;51310;52.198;5.422;2022-12-08T12:29:32;2.80;;;1.80;;
64842;SDS011;51310;52.198;5.422;2022-12-08T12:32:03;3.03;;;1.48;;
64842;SDS011;51310;52.198;5.422;2022-12-08T12:34:35;3.80;;;1.50;;
64842;SDS011;51310;52.198;5.422;2022-12-08T12:37:40;3.53;;;1.73;;
64842;SDS011;51310;52.198;5.422;2022-12-08T12:40:16;2.72;;;1.73;;
64842;SDS011;51310;52.198;5.422;2022-12-08T12:47:47;6.55;;;2.10;;
64842;SDS011;51310;52.198;5.422;2022-12-08T12:50:47;4.47;;;2.08;;
64842;SDS011;51310;52.198;5.422;2022-12-08T12:58:32;2.42;;;1.70;;
64842;SDS011;51310;52.198;5.422;2022-12-08T13:03:38;2.15;;;1.60;;
64842;SDS011;51310;52.198;5.422;2022-12-08T13:06:23;4.88;;;1.80;;
64842;SDS011;51310;52.198;5.422;2022-12-08T13:09:02;2.85;;;1.60;;
64842;SDS011;51310;52.198;5.422;2022-12-08T13:11:28;2.13;;;1.50;;
64842;SDS011;51310;52.198;5.422;2022-12-08T13:14:23;2.10;;;1.60;;
64842;SDS011;51310;52.198;5.422;2022-12-08T13:16:59;2.42;;;1.50;;
64842;SDS011;51310;52.198;5.422;2022-12-08T13:19:31;3.80;;;1.85;;
64842;SDS011;51310;52.198;5.422;2022-12-08T13:22:02;6.90;;;3.42;;
64842;SDS011;51310;52.198;5.422;2022-12-08T13:24:33;7.90;;;4.35;;
64842;SDS011;51310;52.198;5.422;2022-12-08T13:29:28;10.43;;;4.45;;
64842;SDS011;51310;52.198;5.422;2022-12-08T13:32:00;5.63;;;3.33;;
64842;SDS011;51310;52.198;5.422;2022-12-08T13:34:42;7.13;;;4.18;;
64842;SDS011;51310;52.198;5.422;2022-12-08T13:37:21;6.18;;;2.53;;
64842;SDS011;51310;52.198;5.422;2022-12-08T13:40:01;5.15;;;1.85;;
64842;SDS011;51310;52.198;5.422;2022-12-08T13:42:43;3.80;;;2.00;;
64842;SDS011;51310;52.198;5.422;2022-12-08T13:45:50;5.65;;;1.77;;
64842;SDS011;51310;52.198;5.422;2022-12-08T13:48:24;5.35;;;1.75;;
64842;SDS011;51310;52.198;5.422;2022-12-08T13:51:17;4.05;;;1.80;;
64842;SDS011;51310;52.198;5.422;2022-12-08T13:53:58;3.13;;;1.77;;
64842;SDS011;51310;52.198;5.422;2022-12-08T13:56:39;3.97;;;1.90;;
64842;SDS011;51310;52.198;5.422;2022-12-08T13:59:22;3.85;;;1.83;;
64842;SDS011;51310;52.198;5.422;2022-12-08T14:01:55;2.75;;;1.50;;
64842;SDS011;51310;52.198;5.422;2022-12-08T14:04:28;3.55;;;1.63;;
64842;SDS011;51310;52.198;5.422;2022-12-08T14:06:59;2.55;;;1.58;;
64842;SDS011;51310;52.198;5.422;2022-12-08T14:09:30;2.25;;;1.60;;
64842;SDS011;51310;52.198;5.422;2022-12-08T14:12:20;3.70;;;1.70;;
64842;SDS011;51310;52.198;5.422;2022-12-08T14:15:01;2.70;;;1.73;;
64842;SDS011;51310;52.198;5.422;2022-12-08T14:17:31;2.30;;;1.55;;
64842;SDS011;51310;52.198;5.422;2022-12-08T14:22:44;3.40;;;1.98;;
64842;SDS011;51310;52.198;5.422;2022-12-08T14:25:13;2.58;;;1.80;;
64842;SDS011;51310;52.198;5.422;2022-12-08T14:27:41;3.33;;;2.15;;
64842;SDS011;51310;52.198;5.422;2022-12-08T14:30:14;3.63;;;2.27;;
64842;SDS011;51310;52.198;5.422;2022-12-08T14:32:54;5.80;;;2.50;;
64842;SDS011;51310;52.198;5.422;2022-12-08T14:35:30;4.15;;;2.38;;
64842;SDS011;51310;52.198;5.422;2022-12-08T14:38:04;5.75;;;2.75;;
64842;SDS011;51310;52.198;5.422;2022-12-08T14:40:39;7.63;;;3.65;;
64842;SDS011;51310;52.198;5.422;2022-12-08T14:59:18;6.78;;;3.55;;
64842;SDS011;51310;52.198;5.422;2022-12-08T15:04:44;5.68;;;3.50;;
64842;SDS011;51310;52.198;5.422;2022-12-08T15:07:50;7.70;;;4.28;;
64842;SDS011;51310;52.198;5.422;2022-12-08T15:10:23;6.43;;;4.25;;
64842;SDS011;51310;52.198;5.422;2022-12-08T15:15:48;6.57;;;4.60;;
64842;SDS011;51310;52.198;5.422;2022-12-08T15:18:27;7.43;;;4.80;;
64842;SDS011;51310;52.198;5.422;2022-12-08T15:21:02;8.65;;;5.25;;
64842;SDS011;51310;52.198;5.422;2022-12-08T15:23:35;11.00;;;5.50;;
64842;SDS011;51310;52.198;5.422;2022-12-08T15:26:18;8.20;;;4.97;;
64842;SDS011;51310;52.198;5.422;2022-12-08T15:28:48;6.95;;;5.20;;
64842;SDS011;51310;52.198;5.422;2022-12-08T15:31:15;8.70;;;5.50;;
64842;SDS011;51310;52.198;5.422;2022-12-08T15:33:42;9.07;;;5.45;;
64842;SDS011;51310;52.198;5.422;2022-12-08T15:36:08;7.70;;;5.03;;
64842;SDS011;51310;52.198;5.422;2022-12-08T15:38:35;9.23;;;5.00;;
64842;SDS011;51310;52.198;5.422;2022-12-08T15:41:02;7.70;;;5.43;;
64842;SDS011;51310;52.198;5.422;2022-12-08T15:43:29;8.50;;;4.90;;
64842;SDS011;51310;52.198;5.422;2022-12-08T15:45:56;6.72;;;4.60;;
64842;SDS011;51310;52.198;5.422;2022-12-08T15:48:23;6.30;;;4.75;;
64842;SDS011;51310;52.198;5.422;2022-12-08T15:50:53;8.43;;;4.97;;
64842;SDS011;51310;52.198;5.422;2022-12-08T15:53:20;8.95;;;5.82;;
64842;SDS011;51310;52.198;5.422;2022-12-08T15:55:46;7.47;;;5.50;;
64842;SDS011;51310;52.198;5.422;2022-12-08T15:58:17;7.97;;;5.10;;
64842;SDS011;51310;52.198;5.422;2022-12-08T16:00:49;7.20;;;5.55;;
64842;SDS011;51310;52.198;5.422;2022-12-08T16:03:20;8.18;;;4.80;;
64842;SDS011;51310;52.198;5.422;2022-12-08T16:05:53;4.93;;;3.92;;
64842;SDS011;51310;52.198;5.422;2022-12-08T16:08:21;5.60;;;4.00;;
64842;SDS011;51310;52.198;5.422;2022-12-08T16:10:48;4.05;;;3.20;;
64842;SDS011;51310;52.198;5.422;2022-12-08T16:13:15;5.57;;;3.28;;
64842;SDS011;51310;52.198;5.422;2022-12-08T16:16:03;3.60;;;3.03;;
64842;SDS011;51310;52.198;5.422;2022-12-08T16:18:33;4.43;;;3.22;;
64842;SDS011;51310;52.198;5.422;2022-12-08T16:21:04;6.43;;;4.22;;
64842;SDS011;51310;52.198;5.422;2022-12-08T16:23:30;9.88;;;4.43;;
64842;SDS011;51310;52.198;5.422;2022-12-08T16:25:56;6.35;;;4.70;;
64842;SDS011;51310;52.198;5.422;2022-12-08T16:28:24;7.30;;;5.30;;
64842;SDS011;51310;52.198;5.422;2022-12-08T16:30:50;6.90;;;4.80;;
64842;SDS011;51310;52.198;5.422;2022-12-08T16:33:16;6.43;;;5.70;;
64842;SDS011;51310;52.198;5.422;2022-12-08T16:35:42;10.93;;;5.77;;
64842;SDS011;51310;52.198;5.422;2022-12-08T16:38:09;9.38;;;6.05;;
64842;SDS011;51310;52.198;5.422;2022-12-08T16:40:39;8.35;;;6.22;;
64842;SDS011;51310;52.198;5.422;2022-12-08T16:43:27;9.68;;;6.40;;
64842;SDS011;51310;52.198;5.422;2022-12-08T16:45:56;8.98;;;6.78;;
64842;SDS011;51310;52.198;5.422;2022-12-08T16:48:21;10.52;;;6.82;;
64842;SDS011;51310;52.198;5.422;2022-12-08T16:50:47;10.45;;;7.25;;
64842;SDS011;51310;52.198;5.422;2022-12-08T16:53:13;10.93;;;7.47;;
64842;SDS011;51310;52.198;5.422;2022-12-08T16:55:39;16.73;;;8.48;;